createdAt,value
2019-04-03T02:25:06.221Z,663.75
2019-04-03T02:26:06.255Z,455.62
2019-04-03T02:27:05.958Z,500.62
2019-04-03T02:28:05.928Z,500.62
2019-04-03T02:29:08.222Z,590.62
2019-04-03T02:30:05.913Z,427.50
2019-04-03T02:32:06.190Z,382.50
2019-04-03T02:33:05.905Z,320.62
2019-04-03T02:34:05.909Z,303.75
2019-04-03T02:35:07.773Z,298.12
2019-04-03T02:36:05.872Z,292.50
2019-04-03T02:37:05.930Z,281.25
2019-04-03T02:38:05.883Z,270.00
2019-04-03T02:39:05.867Z,264.37
2019-04-03T02:40:07.802Z,258.75
2019-04-03T02:41:05.831Z,264.37
2019-04-03T02:42:30.698Z,410.62
2019-04-03T02:43:30.853Z,495.00
2019-04-03T02:44:30.674Z,421.87
2019-04-03T02:45:30.794Z,382.50
2019-04-03T02:46:59.719Z,320.62
2019-04-03T02:47:55.503Z,348.75
2019-04-03T02:48:55.730Z,421.87
2019-04-03T02:49:55.790Z,427.50
2019-04-03T02:50:55.427Z,466.87
2019-04-03T02:51:55.607Z,393.75
2019-04-03T02:52:58.001Z,331.87
2019-04-03T02:53:55.441Z,309.37
2019-04-03T02:54:55.445Z,303.75
2019-04-03T02:56:20.181Z,309.37
2019-04-03T02:57:20.229Z,320.62
2019-04-03T02:58:22.736Z,331.87
2019-04-03T02:59:20.393Z,343.12
2019-04-03T03:00:20.136Z,365.62
2019-04-03T03:01:20.146Z,421.87
2019-04-03T03:02:20.280Z,500.62
2019-04-03T03:03:20.308Z,433.12
2019-04-03T03:04:21.930Z,478.12
2019-04-03T03:05:26.893Z,427.50
2019-04-03T03:06:20.116Z,427.50
2019-04-03T03:07:23.399Z,624.37
2019-04-03T03:08:22.755Z,455.62
2019-04-03T03:10:20.621Z,371.25
2019-04-03T03:11:24.511Z,399.37
2019-04-03T03:12:20.215Z,421.87
2019-04-03T03:13:20.008Z,427.50
2019-04-03T03:14:20.066Z,1023.75
2019-04-03T03:15:45.531Z,804.37
2019-04-03T03:16:44.819Z,478.12
2019-04-03T03:17:45.259Z,433.12
2019-04-03T03:18:59.891Z,421.87
2019-04-03T03:20:11.541Z,410.62
2019-04-03T03:21:12.036Z,399.37
2019-04-03T03:22:09.636Z,388.12
2019-04-03T03:23:09.581Z,376.87
2019-04-03T03:24:29.750Z,376.87
2019-04-03T03:25:09.647Z,354.37
2019-04-03T03:26:09.867Z,348.75
2019-04-03T03:27:10.224Z,354.37
2019-04-03T03:28:13.199Z,354.37
2019-04-03T03:29:17.861Z,360.00
2019-04-03T03:30:32.722Z,365.62
2019-04-03T03:31:11.881Z,371.25
2019-04-03T03:32:18.879Z,371.25
2019-04-03T03:37:59.676Z,562.50
2019-04-03T03:38:59.635Z,568.12
2019-04-03T03:39:59.487Z,573.75
2019-04-03T03:40:59.502Z,579.37
2019-04-03T03:41:59.471Z,585.00
2019-04-03T03:43:59.415Z,585.00
2019-04-03T03:45:32.655Z,579.37
2019-04-03T03:45:59.220Z,568.12
2019-04-03T03:47:01.031Z,556.87
2019-04-03T03:47:59.232Z,551.25
2019-04-03T03:50:25.132Z,528.75
2019-04-03T03:51:24.311Z,528.75
2019-04-03T03:52:49.065Z,517.50
2019-04-03T03:53:48.828Z,511.87
2019-04-03T03:54:51.245Z,511.87
2019-04-03T03:56:49.133Z,517.50
2019-04-03T03:57:50.790Z,517.50
2019-04-03T03:58:48.845Z,478.12
2019-04-03T04:00:13.575Z,444.37
2019-04-03T04:01:13.586Z,438.75
2019-04-03T04:04:15.321Z,444.37
2019-04-03T04:05:20.030Z,444.37
2019-04-03T04:06:14.840Z,438.75
2019-04-03T04:07:13.614Z,444.37
2019-04-03T04:10:38.806Z,511.87
2019-04-03T04:11:38.464Z,511.87
2019-04-03T04:13:03.570Z,568.12
2019-04-03T04:14:03.237Z,556.87
2019-04-03T04:15:03.200Z,545.62
2019-04-03T04:16:04.879Z,540.00
2019-04-03T04:17:03.220Z,534.37
2019-04-03T04:18:03.243Z,523.12
2019-04-03T04:19:03.186Z,506.25
2019-04-03T04:20:05.326Z,500.62
2019-04-03T04:21:03.627Z,495.00
2019-04-03T04:24:03.112Z,551.25
2019-04-03T04:25:03.158Z,500.62
2019-04-03T04:26:05.087Z,523.12
2019-04-03T04:27:28.043Z,523.12
2019-04-03T04:28:28.041Z,517.50
2019-04-03T04:29:29.865Z,511.87
2019-04-03T04:30:52.876Z,540.00
2019-04-03T04:31:52.656Z,511.87
2019-04-03T04:32:52.701Z,540.00
2019-04-03T04:34:52.680Z,517.50
2019-04-03T04:35:53.226Z,540.00
2019-04-03T04:36:53.053Z,540.00
2019-04-03T04:37:56.662Z,540.00
2019-04-03T04:38:57.929Z,562.50
2019-04-03T04:39:52.579Z,562.50
2019-04-03T04:40:52.768Z,545.62
2019-04-03T04:41:52.553Z,534.37
2019-04-03T04:42:52.544Z,528.75
2019-04-03T04:43:52.565Z,517.50
2019-04-03T04:44:52.523Z,489.37
2019-04-03T04:45:52.557Z,489.37
2019-04-03T04:46:52.551Z,483.75
2019-04-03T04:47:52.493Z,472.50
2019-04-03T04:48:52.493Z,466.87
2019-04-03T04:49:53.593Z,461.25
2019-04-03T04:50:54.228Z,461.25
2019-04-03T04:51:52.572Z,461.25
2019-04-03T04:52:52.745Z,450.00
2019-04-03T04:53:53.637Z,438.75
2019-04-03T04:54:55.654Z,450.00
2019-04-03T04:55:52.413Z,444.37
2019-04-03T04:56:52.420Z,438.75
2019-04-03T04:58:19.079Z,444.37
2019-04-03T04:59:17.374Z,461.25
2019-04-03T05:00:17.489Z,466.87
2019-04-03T05:01:18.140Z,472.50
2019-04-03T05:02:17.875Z,472.50
2019-04-03T05:03:17.300Z,472.50
2019-04-03T05:04:17.539Z,472.50
2019-04-03T05:05:17.292Z,472.50
2019-04-03T05:06:17.267Z,472.50
2019-04-03T05:07:20.544Z,466.87
2019-04-03T05:08:17.293Z,461.25
2019-04-03T05:09:17.341Z,461.25
2019-04-03T05:10:17.902Z,455.62
2019-04-03T05:11:17.274Z,450.00
2019-04-03T05:12:44.482Z,438.75
2019-04-03T05:13:46.375Z,438.75
2019-04-03T05:14:46.892Z,433.12
2019-04-03T05:15:42.196Z,438.75
2019-04-03T05:17:07.706Z,438.75
2019-04-03T05:17:42.003Z,438.75
2019-04-03T05:18:41.975Z,438.75
2019-04-03T05:21:08.750Z,438.75
2019-04-03T05:22:07.006Z,444.37
2019-04-03T05:23:08.943Z,461.25
2019-04-03T05:24:12.819Z,461.25
2019-04-03T05:25:31.568Z,438.75
2019-04-03T05:26:32.189Z,461.25
2019-04-03T05:27:33.338Z,478.12
2019-04-03T05:28:34.187Z,478.12
2019-04-03T05:29:34.203Z,472.50
2019-04-03T05:30:31.498Z,472.50
2019-04-03T05:31:31.465Z,478.12
2019-04-03T05:32:31.900Z,472.50
2019-04-03T05:33:31.500Z,478.12
2019-04-03T05:34:31.500Z,466.87
2019-04-03T05:35:31.435Z,455.62
2019-04-03T05:36:31.433Z,455.62
2019-04-03T05:37:31.606Z,450.00
2019-04-03T05:38:37.406Z,450.00
2019-04-03T05:39:31.383Z,450.00
2019-04-03T05:40:38.668Z,455.62
2019-04-03T05:41:58.517Z,461.25
2019-04-03T05:43:00.206Z,466.87
2019-04-03T05:43:56.287Z,461.25
2019-04-03T05:44:56.147Z,461.25
2019-04-03T05:45:57.365Z,461.25
2019-04-03T05:46:58.974Z,461.25
2019-04-03T05:47:56.123Z,466.87
2019-04-03T05:48:56.109Z,466.87
2019-04-03T05:49:56.486Z,478.12
2019-04-03T05:50:58.139Z,483.75
2019-04-03T05:51:56.077Z,489.37
2019-04-03T05:52:56.065Z,483.75
2019-04-03T05:53:56.306Z,483.75
2019-04-03T05:54:56.048Z,489.37
2019-04-03T05:55:56.131Z,489.37
2019-04-03T05:56:56.077Z,489.37
2019-04-03T05:57:56.220Z,495.00
2019-04-03T05:59:00.393Z,489.37
2019-04-03T06:00:13.674Z,495.00
2019-04-03T06:02:14.050Z,495.00
2019-04-03T06:03:21.889Z,495.00
2019-04-03T06:04:45.837Z,489.37
2019-04-03T06:05:45.584Z,483.75
2019-04-03T06:06:46.869Z,483.75
2019-04-03T06:08:45.548Z,472.50
2019-04-03T06:09:45.533Z,466.87
2019-04-03T06:10:45.530Z,466.87
2019-04-03T06:11:45.524Z,461.25
2019-04-03T06:12:46.349Z,455.62
2019-04-03T06:13:48.575Z,444.37
2019-04-03T06:14:45.532Z,444.37
2019-04-03T06:15:45.712Z,455.62
2019-04-03T06:16:45.538Z,461.25
2019-04-03T06:18:10.498Z,455.62
2019-04-03T06:19:10.413Z,438.75
2019-04-03T06:20:11.344Z,421.87
2019-04-03T06:21:10.472Z,405.00
2019-04-03T06:22:10.759Z,382.50
2019-04-03T06:23:10.502Z,365.62
2019-04-03T06:25:35.199Z,337.50
2019-04-03T06:26:59.913Z,326.25
2019-04-03T06:28:00.412Z,320.62
2019-04-03T06:29:35.157Z,320.62
2019-04-03T06:30:02.103Z,309.37
2019-04-03T06:31:27.813Z,303.75
2019-04-03T06:31:59.915Z,298.12
2019-04-03T06:33:01.963Z,286.87
2019-04-03T06:34:01.845Z,281.25
2019-04-03T06:35:00.042Z,275.62
2019-04-03T06:35:59.857Z,281.25
2019-04-03T06:36:59.856Z,286.87
2019-04-03T06:37:59.819Z,303.75
2019-04-03T06:38:59.792Z,309.37
2019-04-03T06:40:02.329Z,315.00
2019-04-03T06:40:59.769Z,315.00
2019-04-03T06:42:59.902Z,298.12
2019-04-03T06:43:59.754Z,298.12
2019-04-03T06:44:59.728Z,298.12
2019-04-03T06:45:59.978Z,286.87
2019-04-03T06:47:00.838Z,281.25
2019-04-03T06:47:59.697Z,270.00
2019-04-03T06:48:59.824Z,264.37
2019-04-03T06:49:59.880Z,253.12
2019-04-03T06:50:59.666Z,247.50
2019-04-03T06:51:59.653Z,241.87
2019-04-03T06:52:59.660Z,241.87
2019-04-03T06:53:59.994Z,236.25
2019-04-03T06:54:59.676Z,236.25
2019-04-03T06:55:59.631Z,236.25
2019-04-03T06:57:13.860Z,236.25
2019-04-03T06:58:00.935Z,236.25
2019-04-03T06:58:59.581Z,236.25
2019-04-03T06:59:59.570Z,236.25
2019-04-03T07:00:59.716Z,236.25
2019-04-03T07:01:59.551Z,236.25
2019-04-03T07:03:24.390Z,241.87
2019-04-03T07:04:49.157Z,247.50
2019-04-03T07:05:49.145Z,241.87
2019-04-03T07:06:49.282Z,241.87
2019-04-03T07:07:49.126Z,247.50
2019-04-03T07:08:49.207Z,253.12
2019-04-03T07:09:50.823Z,253.12
2019-04-03T07:10:55.072Z,258.75
2019-04-03T07:12:16.006Z,264.37
2019-04-03T07:13:15.229Z,264.37
2019-04-03T07:14:14.036Z,258.75
2019-04-03T07:15:14.203Z,264.37
2019-04-03T07:16:39.040Z,270.00
2019-04-03T07:17:38.856Z,270.00
2019-04-03T07:18:39.149Z,270.00
2019-04-03T07:19:40.970Z,264.37
2019-04-03T07:20:38.772Z,264.37
2019-04-03T07:21:38.985Z,258.75
2019-04-03T07:22:38.813Z,253.12
2019-04-03T07:25:03.943Z,247.50
2019-04-03T07:26:05.156Z,247.50
2019-04-03T07:27:06.067Z,247.50
2019-04-03T07:28:18.278Z,241.87
2019-04-03T07:29:03.588Z,241.87
2019-04-03T07:30:03.597Z,241.87
2019-04-03T07:31:28.511Z,241.87
2019-04-03T07:32:28.484Z,230.62
2019-04-03T07:33:28.685Z,236.25
2019-04-03T07:34:28.602Z,241.87
2019-04-03T07:35:31.552Z,247.50
2019-04-03T07:36:53.090Z,253.12
2019-04-03T07:38:18.083Z,253.12
2019-04-03T07:39:19.981Z,253.12
2019-04-03T07:40:18.708Z,247.50
2019-04-03T07:41:17.883Z,247.50
2019-04-03T07:42:17.806Z,241.87
2019-04-03T07:43:17.800Z,241.87
2019-04-03T07:44:17.835Z,241.87
2019-04-03T07:45:44.002Z,241.87
2019-04-03T07:46:42.829Z,241.87
2019-04-03T07:47:42.818Z,241.87
2019-04-03T07:48:42.811Z,253.12
2019-04-03T07:49:42.933Z,253.12
2019-04-03T07:50:43.040Z,253.12
2019-04-03T07:51:43.724Z,264.37
2019-04-03T07:52:47.430Z,275.62
2019-04-03T07:53:42.975Z,281.25
2019-04-03T07:54:42.815Z,286.87
2019-04-03T07:56:25.569Z,298.12
2019-04-03T07:57:09.762Z,298.12
2019-04-03T07:58:07.634Z,292.50
2019-04-03T07:59:07.649Z,286.87
2019-04-03T08:00:14.956Z,281.25
2019-04-03T08:01:09.864Z,270.00
2019-04-03T08:02:07.647Z,264.37
2019-04-03T08:03:10.794Z,258.75
2019-04-03T08:04:07.726Z,253.12
2019-04-03T08:05:09.579Z,247.50
2019-04-03T08:06:07.645Z,247.50
2019-04-03T08:07:07.675Z,258.75
2019-04-03T08:08:08.792Z,270.00
2019-04-03T08:09:09.341Z,275.62
2019-04-03T08:10:07.766Z,281.25
2019-04-03T08:11:07.809Z,286.87
2019-04-03T08:12:09.501Z,286.87
2019-04-03T08:13:07.686Z,286.87
2019-04-03T08:14:09.099Z,286.87
2019-04-03T08:15:08.698Z,292.50
2019-04-03T08:16:07.517Z,292.50
2019-04-03T08:17:07.841Z,292.50
2019-04-03T08:18:07.611Z,292.50
2019-04-03T08:19:23.193Z,298.12
2019-04-03T08:20:07.425Z,292.50
2019-04-03T08:22:07.480Z,281.25
2019-04-03T08:23:07.358Z,281.25
2019-04-03T08:24:08.087Z,281.25
2019-04-03T08:25:10.621Z,286.87
2019-04-03T08:26:07.333Z,286.87
2019-04-03T08:27:08.643Z,286.87
2019-04-03T08:28:07.426Z,292.50
2019-04-03T08:29:07.298Z,298.12
2019-04-03T08:30:08.565Z,303.75
2019-04-03T08:31:10.847Z,315.00
2019-04-03T08:32:09.405Z,326.25
2019-04-03T08:33:16.078Z,337.50
2019-04-03T08:34:32.738Z,348.75
2019-04-03T08:35:35.762Z,354.37
2019-04-03T08:36:32.133Z,354.37
2019-04-03T08:37:32.793Z,354.37
2019-04-03T08:38:32.336Z,354.37
2019-04-03T08:39:32.263Z,354.37
2019-04-03T08:40:57.158Z,343.12
2019-04-03T08:41:57.269Z,337.50
2019-04-03T08:42:59.532Z,331.87
2019-04-03T08:43:58.877Z,326.25
2019-04-03T08:44:56.937Z,326.25
2019-04-03T08:45:56.870Z,320.62
2019-04-03T08:47:21.746Z,320.62
2019-04-03T08:48:21.645Z,315.00
2019-04-03T08:49:21.642Z,315.00
2019-04-03T08:50:21.789Z,320.62
2019-04-03T08:51:21.613Z,320.62
2019-04-03T08:52:46.749Z,326.25
2019-04-03T08:54:11.379Z,331.87
2019-04-03T08:55:14.137Z,331.87
2019-04-03T08:56:11.660Z,331.87
2019-04-03T08:57:11.440Z,337.50
2019-04-03T08:58:11.180Z,337.50
2019-04-03T08:59:13.145Z,343.12
2019-04-03T09:00:13.193Z,343.12
2019-04-03T09:01:39.427Z,354.37
2019-04-03T09:02:35.946Z,365.62
2019-04-03T09:03:35.988Z,365.62
2019-04-03T09:04:35.926Z,371.25
2019-04-03T09:05:35.916Z,371.25
2019-04-03T09:07:01.132Z,382.50
2019-04-03T09:08:03.191Z,376.87
2019-04-03T09:09:01.206Z,376.87
2019-04-03T09:10:01.442Z,371.25
2019-04-03T09:11:00.873Z,371.25
2019-04-03T09:12:01.290Z,365.62
2019-04-03T09:13:00.908Z,360.00
2019-04-03T09:14:01.044Z,354.37
2019-04-03T09:15:00.939Z,348.75
2019-04-03T09:16:00.862Z,343.12
2019-04-03T09:17:25.809Z,343.12
2019-04-03T09:18:25.663Z,343.12
2019-04-03T09:19:42.211Z,348.75
2019-04-03T09:20:27.809Z,354.37
2019-04-03T09:21:25.627Z,354.37
2019-04-03T09:22:25.765Z,360.00
2019-04-03T09:23:25.609Z,365.62
2019-04-03T09:24:28.768Z,365.62
2019-04-03T09:25:25.586Z,360.00
2019-04-03T09:26:25.571Z,365.62
2019-04-03T09:27:25.568Z,360.00
2019-04-03T09:28:25.699Z,354.37
2019-04-03T09:29:25.560Z,354.37
2019-04-03T09:30:25.534Z,348.75
2019-04-03T09:31:26.765Z,343.12
2019-04-03T09:32:25.731Z,337.50
2019-04-03T09:33:26.361Z,331.87
2019-04-03T09:34:28.720Z,320.62
2019-04-03T09:35:25.681Z,315.00
2019-04-03T09:36:25.835Z,309.37
2019-04-03T09:37:25.462Z,303.75
2019-04-03T09:38:25.506Z,298.12
2019-04-03T09:39:25.743Z,292.50
2019-04-03T09:40:25.768Z,286.87
2019-04-03T09:41:25.442Z,286.87
2019-04-03T09:42:25.610Z,286.87
2019-04-03T09:43:25.681Z,292.50
2019-04-03T09:44:25.942Z,292.50
2019-04-03T09:45:27.633Z,292.50
2019-04-03T09:46:25.734Z,292.50
2019-04-03T09:47:25.354Z,292.50
2019-04-03T09:48:25.375Z,286.87
2019-04-03T09:50:25.430Z,286.87
2019-04-03T09:51:52.555Z,286.87
2019-04-03T09:52:54.204Z,286.87
2019-04-03T09:53:51.411Z,286.87
2019-04-03T09:55:14.930Z,286.87
2019-04-03T09:56:15.414Z,286.87
2019-04-03T09:57:14.886Z,286.87
2019-04-03T09:58:14.928Z,286.87
2019-04-03T09:59:16.282Z,286.87
2019-04-03T10:00:14.853Z,286.87
2019-04-03T10:01:18.020Z,286.87
2019-04-03T10:02:14.926Z,292.50
2019-04-03T10:03:14.894Z,286.87
2019-04-03T10:04:39.914Z,286.87
2019-04-03T10:05:39.615Z,281.25
2019-04-03T10:06:39.602Z,281.25
2019-04-03T10:07:39.687Z,275.62
2019-04-03T10:08:40.411Z,275.62
2019-04-03T10:09:41.118Z,275.62
2019-04-03T10:10:39.616Z,275.62
2019-04-03T10:11:39.777Z,275.62
2019-04-03T10:13:39.643Z,281.25
2019-04-03T10:14:39.528Z,281.25
2019-04-03T10:15:39.512Z,281.25
2019-04-03T10:16:39.707Z,286.87
2019-04-03T10:17:39.710Z,286.87
2019-04-03T10:21:39.557Z,286.87
2019-04-03T10:22:41.733Z,281.25
2019-04-03T10:23:41.453Z,275.62
2019-04-03T10:24:39.686Z,270.00
2019-04-03T10:25:39.504Z,264.37
2019-04-03T10:26:40.831Z,264.37
2019-04-03T10:27:42.649Z,258.75
2019-04-03T10:28:42.589Z,258.75
2019-04-03T10:29:39.361Z,258.75
2019-04-03T10:31:39.643Z,258.75
2019-04-03T10:32:39.375Z,253.12
2019-04-03T10:33:39.737Z,253.12
2019-04-03T10:34:39.350Z,253.12
2019-04-03T10:35:39.841Z,247.50
2019-04-03T10:36:40.160Z,241.87
2019-04-03T10:37:41.426Z,241.87
2019-04-03T10:38:41.725Z,236.25
2019-04-03T10:39:43.341Z,230.62
2019-04-03T10:40:39.278Z,230.62
2019-04-03T10:41:39.439Z,230.62
2019-04-03T10:42:39.252Z,225.00
2019-04-03T10:43:39.595Z,225.00
2019-04-03T10:44:39.213Z,219.37
2019-04-03T10:45:39.198Z,219.37
2019-04-03T10:46:39.385Z,219.37
2019-04-03T10:47:43.382Z,219.37
2019-04-03T10:48:39.175Z,213.75
2019-04-03T10:51:41.588Z,213.75
2019-04-03T10:52:39.195Z,213.75
2019-04-03T10:53:39.155Z,219.37
2019-04-03T10:54:41.395Z,219.37
2019-04-03T10:55:39.130Z,213.75
2019-04-03T10:56:39.125Z,213.75
2019-04-03T10:57:39.285Z,213.75
2019-04-03T10:58:42.252Z,213.75
2019-04-03T10:59:39.256Z,208.12
2019-04-03T11:00:39.218Z,208.12
2019-04-03T11:01:39.034Z,208.12
2019-04-03T11:03:04.170Z,202.50
2019-04-03T11:04:05.924Z,202.50
2019-04-03T11:05:04.152Z,208.12
2019-04-03T11:06:05.162Z,208.12
2019-04-03T11:07:03.912Z,208.12
2019-04-03T11:08:28.749Z,208.12
2019-04-03T11:09:28.958Z,213.75
2019-04-03T11:10:28.725Z,213.75
2019-04-03T11:11:29.678Z,213.75
2019-04-03T11:12:31.922Z,213.75
2019-04-03T11:14:03.017Z,213.75
2019-04-03T11:14:28.683Z,208.12
2019-04-03T11:15:53.659Z,208.12
2019-04-03T11:16:53.736Z,202.50
2019-04-03T11:17:55.790Z,202.50
2019-04-03T11:19:00.131Z,196.87
2019-04-03T11:20:18.469Z,196.87
2019-04-03T11:21:18.579Z,191.25
2019-04-03T11:22:18.235Z,191.25
2019-04-03T11:23:21.615Z,185.62
2019-04-03T11:24:43.317Z,174.37
2019-04-03T11:25:45.836Z,168.75
2019-04-03T11:26:43.162Z,168.75
2019-04-03T11:27:45.032Z,168.75
2019-04-03T11:28:43.684Z,174.37
2019-04-03T11:30:43.170Z,174.37
2019-04-03T11:31:43.439Z,174.37
2019-04-03T11:32:43.042Z,174.37
2019-04-03T11:33:45.929Z,174.37
2019-04-03T11:34:43.030Z,174.37
2019-04-03T11:35:43.572Z,174.37
2019-04-03T11:36:43.167Z,180.00
2019-04-03T11:38:14.062Z,180.00
2019-04-03T11:40:00.541Z,174.37
2019-04-03T11:40:34.677Z,174.37
2019-04-03T11:41:32.585Z,168.75
2019-04-03T11:43:32.698Z,163.12
2019-04-03T11:44:32.768Z,163.12
2019-04-03T11:45:32.678Z,157.50
2019-04-03T11:46:32.601Z,151.87
2019-04-03T11:47:32.569Z,146.25
2019-04-03T11:48:32.607Z,140.62
2019-04-03T11:49:57.784Z,129.37
2019-04-03T11:51:24.315Z,129.37
2019-04-03T11:52:22.434Z,129.37
2019-04-03T11:53:25.925Z,129.37
2019-04-03T11:54:22.808Z,129.37
2019-04-03T11:55:22.478Z,129.37
2019-04-03T11:56:22.780Z,123.75
2019-04-03T11:57:22.312Z,123.75
2019-04-03T11:58:22.574Z,118.12
2019-04-03T11:59:24.377Z,112.50
2019-04-03T12:00:24.413Z,106.87
2019-04-03T12:01:22.262Z,106.87
2019-04-03T12:02:22.326Z,106.87
2019-04-03T12:03:22.254Z,106.87
2019-04-03T12:04:22.253Z,101.25
2019-04-03T12:06:47.075Z,95.62
2019-04-03T12:07:56.539Z,90.00
2019-04-03T12:08:49.087Z,90.00
2019-04-03T12:09:49.390Z,95.62
2019-04-03T12:10:47.293Z,95.62
2019-04-03T12:13:47.153Z,95.62
2019-04-03T12:15:11.930Z,101.25
2019-04-03T12:16:11.760Z,101.25
2019-04-03T12:17:11.750Z,101.25
2019-04-03T12:18:11.805Z,101.25
2019-04-03T12:20:27.412Z,101.25
2019-04-03T12:21:14.155Z,101.25
2019-04-03T12:22:12.035Z,101.25
2019-04-03T12:23:11.798Z,95.62
2019-04-03T12:24:37.390Z,95.62
2019-04-03T12:27:14.646Z,90.00
2019-04-03T12:28:13.016Z,90.00
2019-04-03T12:29:54.331Z,84.37
2019-04-03T12:31:09.638Z,84.37
2019-04-03T12:31:36.798Z,84.37
2019-04-03T12:32:42.955Z,84.37
2019-04-03T12:33:37.716Z,84.37
2019-04-03T12:35:01.205Z,78.75
2019-04-03T12:36:27.586Z,78.75
2019-04-03T12:37:26.174Z,78.75
2019-04-03T12:38:26.193Z,73.12
2019-04-03T12:39:41.417Z,73.12
2019-04-03T12:40:25.949Z,67.50
2019-04-03T12:41:27.426Z,67.50
2019-04-03T12:42:26.150Z,67.50
2019-04-03T12:43:33.381Z,67.50
2019-04-03T12:45:26.913Z,67.50
2019-04-03T12:46:28.079Z,61.87
2019-04-03T12:47:28.007Z,61.87
2019-04-03T12:51:54.942Z,56.25
2019-04-03T12:52:54.953Z,56.25
2019-04-03T12:53:54.920Z,56.25
2019-04-03T12:54:54.909Z,56.25
2019-04-03T12:55:57.119Z,56.25
2019-04-03T12:56:54.941Z,56.25
2019-04-03T12:57:54.878Z,50.62
2019-04-03T12:58:54.862Z,50.62
2019-04-03T12:59:54.852Z,50.62
2019-04-03T13:00:54.842Z,45.00
2019-04-03T13:01:55.032Z,45.00
2019-04-03T13:02:55.361Z,45.00
2019-04-03T13:03:56.368Z,45.00
2019-04-03T13:04:54.885Z,39.37
2019-04-03T13:05:55.008Z,39.37
2019-04-03T13:06:54.775Z,39.37
2019-04-03T13:07:54.771Z,33.75
2019-04-03T13:08:54.961Z,33.75
2019-04-03T13:09:54.742Z,33.75
2019-04-03T13:10:54.926Z,33.75
2019-04-03T13:11:55.075Z,28.12
2019-04-03T13:12:56.538Z,28.12
2019-04-03T13:13:55.062Z,28.12
2019-04-03T13:14:55.121Z,28.12
2019-04-03T13:15:55.026Z,22.50
2019-04-03T13:16:54.673Z,22.50
2019-04-03T13:17:54.660Z,22.50
2019-04-03T13:18:54.651Z,16.87
2019-04-03T13:19:54.636Z,16.87
2019-04-03T13:20:55.306Z,16.87
2019-04-03T13:21:54.865Z,16.87
2019-04-03T13:22:55.040Z,16.87
2019-04-03T13:23:54.593Z,16.87
2019-04-03T13:24:54.584Z,16.87
2019-04-03T13:25:54.620Z,16.87
2019-04-03T13:26:57.152Z,11.25
2019-04-03T13:27:54.554Z,11.25
2019-04-03T13:28:54.543Z,11.25
2019-04-03T13:29:54.533Z,11.25
2019-04-03T13:30:54.519Z,11.25
2019-04-03T13:31:54.509Z,11.25
2019-04-03T13:33:00.170Z,5.62
2019-04-03T13:34:19.833Z,5.62
2019-04-03T13:35:19.642Z,5.62
2019-04-03T13:36:19.825Z,5.62
2019-04-03T13:37:22.377Z,5.62
2019-04-03T13:38:21.691Z,5.62
2019-04-03T13:39:19.247Z,5.62
2019-04-03T13:40:19.231Z,5.62
2019-04-03T13:41:19.232Z,5.62
2019-04-03T13:42:19.211Z,0.00
2019-04-03T13:43:20.485Z,0.00
2019-04-03T13:44:19.288Z,0.00
2019-04-03T13:45:19.296Z,0.00
2019-04-03T13:46:19.164Z,0.00
2019-04-03T13:47:19.527Z,0.00
2019-04-03T13:48:19.140Z,0.00
2019-04-03T13:49:19.615Z,0.00
2019-04-03T13:50:21.754Z,0.00
2019-04-03T13:51:19.106Z,0.00
2019-04-03T13:52:19.099Z,0.00
2019-04-03T13:53:20.477Z,0.00
2019-04-03T13:54:19.444Z,0.00
2019-04-03T13:55:19.066Z,0.00
2019-04-03T13:56:19.505Z,0.00
2019-04-03T13:57:19.433Z,0.00
2019-04-03T13:58:21.181Z,0.00
2019-04-03T13:59:19.018Z,0.00
2019-04-03T14:00:22.576Z,0.00
2019-04-03T14:01:19.581Z,0.00
2019-04-03T14:02:19.100Z,0.00
2019-04-03T14:03:19.382Z,0.00
2019-04-03T14:04:20.355Z,0.00
2019-04-03T14:05:18.959Z,0.00
2019-04-03T14:06:18.943Z,0.00
2019-04-03T14:07:18.957Z,0.00
2019-04-03T17:59:06.149Z,0.00
2019-04-03T18:03:06.108Z,0.00
2019-04-03T18:53:05.562Z,0.00
2019-04-03T18:54:05.553Z,0.00
2019-04-03T18:55:05.585Z,0.00
2019-04-03T18:57:05.517Z,0.00
2019-04-03T18:58:05.504Z,0.00
